sim
Sign-in with your pilot id or email,
or register
Callsign
Passwort

Schedule Details

Flight Number: OEO3045
Departure: Lubeck Blankensee Airport (EDHL) at 12:25
Arrival: Munich Airport (EDDM) at 13:50

Weather Information
Getting current METAR information for EDHL 241120Z 21015KT 9999 SCT040 16/08 Q1003
Getting current METAR information for EDDM 241120Z 22005KT 130V250 9999 FEW033 20/13 Q1010 NOSIG

Schedule Frequency

Route Map